KMWH/MWH METAR and TAF weather

Enter ICAO airport designator
Station Type Date Time Source
KMWH METAR 2020/11/27 02:52 UTC NOAA

KMWH 270252Z 00000KT 7SM CLR 01/M02 A3032 RMK AO2 SLP281 T00061017 50000


Station Type Date Time Source
KMWH Decoded METAR 2020/11/27 02:52 UTC NOAA

GRANT COUNTY AIRPORT, WA, United States (KMWH) 47-12N 119-19W 362M
Nov 26, 2020 - 09:52 PM EST / 2020.11.27 0252 UTC
Wind: Calm:0
Visibility: 7 mile(s):0
Sky conditions: clear
Temperature: 33.1 F (0.6 C)
Dew Point: 28.9 F (-1.7 C)
Relative Humidity: 84%
Pressure (altimeter): 30.32 in. Hg (1026 hPa)
Pressure tendency: 0.00 inches (0.0 hPa) higher than three hours ago
ob: KMWH 270252Z 00000KT 7SM CLR 01/M02 A3032 RMK AO2 SLP281 T00061017 50000
cycle: 3

Station Type Date Time Source
KMWH TAF 2020/11/26 18:42 UTC NOAA

TAF KMWH 261739Z 2618/2718 VRB05KT P6SM BKN250
FM270700 VRB02KT 5SM BR BCFG SCT004
FM270900 VRB02KT 1/2SM FZFG BKN002

Example: see airport list